createdAt,value
2023-03-28T00:01:27.380Z,21.00
2023-03-28T00:03:29.641Z,21.00
2023-03-28T00:05:31.835Z,21.00
2023-03-28T00:07:33.790Z,21.00
2023-03-28T00:09:35.638Z,21.00
2023-03-28T00:11:37.481Z,21.00
2023-03-28T00:13:39.328Z,21.00
2023-03-28T00:15:42.190Z,21.00
2023-03-28T00:17:44.015Z,21.00
2023-03-28T00:19:45.887Z,21.00
2023-03-28T00:21:49.394Z,21.00
2023-03-28T00:23:52.814Z,21.00
2023-03-28T00:25:54.613Z,21.00
2023-03-28T00:27:56.397Z,21.00
2023-03-28T00:29:58.358Z,21.00
2023-03-28T00:32:00.192Z,21.00
2023-03-28T00:34:02.898Z,21.00
2023-03-28T00:36:04.894Z,21.00
2023-03-28T00:38:06.761Z,21.00
2023-03-28T00:40:09.117Z,21.00
2023-03-28T00:42:13.624Z,21.00
2023-03-28T00:44:34.023Z,21.00
2023-03-28T00:46:37.040Z,21.00
2023-03-28T00:48:41.104Z,21.00
2023-03-28T00:50:45.927Z,21.00
2023-03-28T00:52:53.593Z,21.00
2023-03-28T00:54:58.230Z,21.00
2023-03-28T00:57:01.047Z,21.00
2023-03-28T00:59:04.590Z,21.00
2023-03-28T01:01:06.438Z,21.00
2023-03-28T01:03:09.027Z,21.00
2023-03-28T01:05:12.209Z,21.00
2023-03-28T01:07:14.465Z,21.00
2023-03-28T01:09:17.020Z,21.00
2023-03-28T01:11:24.511Z,21.00
2023-03-28T01:13:28.118Z,21.00
2023-03-28T01:15:32.061Z,21.00
2023-03-28T01:17:36.843Z,21.00
2023-03-28T01:19:38.635Z,21.00
2023-03-28T01:21:59.982Z,21.00
2023-03-28T01:24:15.420Z,21.00
2023-03-28T01:26:35.317Z,21.00
2023-03-28T01:28:40.456Z,21.00
2023-03-28T01:31:02.610Z,21.00
2023-03-28T01:33:34.745Z,21.00
2023-03-28T01:35:36.592Z,21.00
2023-03-28T01:37:38.466Z,21.00
2023-03-28T01:39:45.295Z,21.00
2023-03-28T01:42:02.826Z,21.00
2023-03-28T01:44:17.005Z,21.00
2023-03-28T01:46:21.952Z,21.00
2023-03-28T01:48:32.661Z,21.00
2023-03-28T01:50:46.957Z,21.00
2023-03-28T01:53:09.429Z,21.00
2023-03-28T01:55:22.802Z,21.00
2023-03-28T01:57:30.617Z,21.00
2023-03-28T01:59:39.035Z,21.00
2023-03-28T02:01:58.920Z,21.00
2023-03-28T02:04:02.581Z,21.00
2023-03-28T02:06:11.349Z,21.00
2023-03-28T02:08:16.683Z,21.00
2023-03-28T02:10:39.449Z,21.00
2023-03-28T02:13:07.710Z,21.00
2023-03-28T02:15:25.882Z,21.00
2023-03-28T02:17:49.026Z,21.00
2023-03-28T02:20:10.638Z,21.00
2023-03-28T02:22:50.567Z,21.00
2023-03-28T02:25:12.748Z,21.00
2023-03-28T02:27:45.668Z,21.00
2023-03-28T02:29:55.774Z,21.00
2023-03-28T02:32:09.782Z,21.00
2023-03-28T02:34:18.615Z,21.00
2023-03-28T02:36:38.962Z,21.00
2023-03-28T02:38:45.002Z,20.90
2023-03-28T02:41:07.602Z,20.90
2023-03-28T02:43:21.470Z,21.00
2023-03-28T02:45:42.055Z,21.00
2023-03-28T02:47:43.880Z,20.90
2023-03-28T02:50:04.195Z,21.00
2023-03-28T02:52:16.901Z,21.00
2023-03-28T02:54:18.728Z,20.90
2023-03-28T02:56:26.054Z,20.90
2023-03-28T02:58:53.180Z,21.00
2023-03-28T03:00:55.505Z,21.00
2023-03-28T03:02:57.434Z,20.90
2023-03-28T03:04:59.213Z,21.00
2023-03-28T03:07:01.098Z,21.00
2023-03-28T03:09:05.693Z,21.00
2023-03-28T03:11:07.546Z,21.00
2023-03-28T03:13:09.394Z,21.00
2023-03-28T03:15:11.646Z,20.90
2023-03-28T03:17:27.867Z,20.90
2023-03-28T03:19:29.885Z,20.90
2023-03-28T03:21:32.331Z,20.90
2023-03-28T03:23:34.380Z,20.90
2023-03-28T03:25:36.149Z,20.90
2023-03-28T03:28:16.428Z,20.90
2023-03-28T03:30:18.373Z,21.00
2023-03-28T03:32:40.130Z,20.90
2023-03-28T03:34:42.223Z,20.90
2023-03-28T03:36:44.261Z,21.00
2023-03-28T03:38:46.806Z,20.90
2023-03-28T03:40:54.048Z,20.90
2023-03-28T03:42:56.089Z,20.90
2023-03-28T03:44:58.203Z,20.90
2023-03-28T03:47:00.216Z,20.90
2023-03-28T03:49:03.298Z,20.90
2023-03-28T03:51:05.329Z,20.90
2023-03-28T03:53:07.102Z,20.90
2023-03-28T03:55:15.592Z,20.90
2023-03-28T03:57:18.864Z,20.90
2023-03-28T03:59:20.808Z,20.90
2023-03-28T04:01:23.721Z,20.90
2023-03-28T04:03:26.512Z,20.90
2023-03-28T04:05:29.326Z,20.90
2023-03-28T04:07:39.538Z,20.90
2023-03-28T04:09:46.850Z,20.90
2023-03-28T04:11:49.145Z,20.90
2023-03-28T04:13:51.030Z,20.90
2023-03-28T04:15:53.005Z,20.90
2023-03-28T04:17:59.749Z,20.90
2023-03-28T04:20:03.896Z,20.90
2023-03-28T04:22:06.241Z,20.90
2023-03-28T04:24:09.360Z,20.90
2023-03-28T04:26:18.334Z,20.90
2023-03-28T04:28:26.641Z,20.90
2023-03-28T04:30:32.152Z,20.90
2023-03-28T04:32:56.698Z,20.90
2023-03-28T04:35:00.655Z,20.90
2023-03-28T04:37:03.355Z,20.90
2023-03-28T04:39:10.036Z,20.90
2023-03-28T04:41:30.567Z,20.90
2023-03-28T04:43:57.982Z,20.90
2023-03-28T04:46:00.024Z,20.90
2023-03-28T04:48:02.118Z,20.90
2023-03-28T04:50:04.154Z,20.90
2023-03-28T04:52:10.305Z,20.90
2023-03-28T04:54:12.199Z,20.90
2023-03-28T04:56:22.835Z,20.90
2023-03-28T04:58:25.436Z,20.90
2023-03-28T05:00:27.471Z,20.90
2023-03-28T05:02:58.243Z,20.90
2023-03-28T05:05:01.527Z,20.90
2023-03-28T05:07:03.762Z,20.90
2023-03-28T05:09:06.010Z,20.90
2023-03-28T05:11:07.872Z,20.90
2023-03-28T05:13:12.157Z,20.90
2023-03-28T05:15:22.965Z,20.90
2023-03-28T05:17:54.780Z,20.90
2023-03-28T05:20:06.002Z,20.90
2023-03-28T05:22:11.536Z,20.90
2023-03-28T05:24:16.743Z,20.90
2023-03-28T05:26:18.590Z,20.90
2023-03-28T05:28:20.637Z,20.90
2023-03-28T05:30:25.871Z,20.90
2023-03-28T05:32:30.357Z,20.90
2023-03-28T05:34:32.181Z,20.90
2023-03-28T05:36:34.113Z,20.90
2023-03-28T05:38:35.934Z,20.90
2023-03-28T05:40:45.496Z,20.90
2023-03-28T05:42:47.403Z,20.90
2023-03-28T05:44:51.174Z,20.90
2023-03-28T05:46:53.001Z,20.90
2023-03-28T05:48:54.864Z,20.90
2023-03-28T05:50:57.432Z,20.90
2023-03-28T05:52:59.473Z,20.90
2023-03-28T05:55:01.292Z,20.90
2023-03-28T05:57:03.252Z,20.90
2023-03-28T05:59:05.237Z,20.90
2023-03-28T06:01:11.805Z,20.90
2023-03-28T06:03:16.347Z,20.90
2023-03-28T06:05:19.824Z,20.90
2023-03-28T06:07:31.819Z,20.90
2023-03-28T06:09:43.274Z,20.90
2023-03-28T06:11:46.066Z,20.90
2023-03-28T06:13:47.928Z,20.90
2023-03-28T06:15:49.747Z,20.80
2023-03-28T06:17:53.425Z,20.80
2023-03-28T06:19:55.355Z,20.80
2023-03-28T06:21:58.211Z,20.90
2023-03-28T06:24:00.450Z,20.80
2023-03-28T06:26:07.494Z,20.90
2023-03-28T06:28:15.473Z,20.90
2023-03-28T06:30:35.786Z,20.90
2023-03-28T06:32:37.770Z,20.90
2023-03-28T06:34:39.676Z,20.90
2023-03-28T06:36:41.493Z,20.90
2023-03-28T06:38:43.321Z,20.90
2023-03-28T06:40:45.977Z,20.90
2023-03-28T06:42:47.807Z,20.90
2023-03-28T06:45:15.303Z,20.90
2023-03-28T06:47:22.625Z,20.90
2023-03-28T06:49:24.689Z,20.90
2023-03-28T06:51:35.737Z,20.90
2023-03-28T06:53:37.623Z,20.90
2023-03-28T06:55:39.443Z,20.90
2023-03-28T06:57:41.318Z,20.90
2023-03-28T06:59:52.744Z,20.90
2023-03-28T07:02:02.501Z,20.90
2023-03-28T07:04:07.480Z,20.80
2023-03-28T07:06:11.095Z,20.70
2023-03-28T07:08:13.359Z,20.50
2023-03-28T07:10:15.144Z,20.60
2023-03-28T07:12:17.548Z,20.60
2023-03-28T07:14:19.456Z,20.60
2023-03-28T07:16:21.288Z,20.60
2023-03-28T07:18:24.114Z,20.70
2023-03-28T07:20:26.487Z,20.80
2023-03-28T07:22:28.613Z,20.90
2023-03-28T07:24:30.502Z,21.00
2023-03-28T07:26:37.545Z,21.10
2023-03-28T07:28:39.404Z,21.20
2023-03-28T07:30:41.235Z,21.20
2023-03-28T07:32:53.401Z,21.20
2023-03-28T07:35:02.749Z,21.10
2023-03-28T07:37:04.729Z,21.10
2023-03-28T07:39:29.945Z,21.10
2023-03-28T07:41:34.275Z,21.00
2023-03-28T07:43:36.401Z,21.00
2023-03-28T07:45:38.760Z,21.20
2023-03-28T07:47:45.437Z,21.40
2023-03-28T07:49:47.377Z,21.50
2023-03-28T07:51:49.319Z,21.60
2023-03-28T07:53:52.470Z,21.50
2023-03-28T07:55:55.988Z,21.50
2023-03-28T07:58:05.168Z,21.40
2023-03-28T08:00:14.241Z,21.40
2023-03-28T08:02:17.530Z,21.50
2023-03-28T08:04:19.911Z,21.70
2023-03-28T08:06:38.982Z,21.90
2023-03-28T08:08:41.408Z,22.00
2023-03-28T08:10:58.958Z,22.10
2023-03-28T08:13:02.315Z,22.20
2023-03-28T08:15:04.819Z,22.10
2023-03-28T08:17:06.645Z,22.00
2023-03-28T08:19:11.719Z,21.90
2023-03-28T08:21:34.245Z,21.90
2023-03-28T08:23:36.619Z,22.00
2023-03-28T08:26:01.033Z,22.00
2023-03-28T08:28:02.905Z,22.10
2023-03-28T08:30:05.522Z,22.10
2023-03-28T08:32:09.706Z,22.10
2023-03-28T08:34:11.944Z,22.00
2023-03-28T08:36:16.555Z,22.10
2023-03-28T08:38:19.884Z,22.10
2023-03-28T08:40:24.362Z,22.20
2023-03-28T08:42:34.523Z,22.30
2023-03-28T08:44:42.173Z,22.30
2023-03-28T08:46:45.285Z,22.30
2023-03-28T08:48:54.912Z,22.30
2023-03-28T08:51:00.004Z,22.40
2023-03-28T08:53:03.827Z,22.30
2023-03-28T08:55:15.258Z,22.40
2023-03-28T08:57:20.115Z,22.40
2023-03-28T08:59:28.016Z,22.50
2023-03-28T09:01:31.390Z,22.50
2023-03-28T09:03:34.745Z,22.50
2023-03-28T09:06:09.041Z,22.40
2023-03-28T09:08:29.690Z,22.40
2023-03-28T09:10:48.158Z,22.40
2023-03-28T09:13:10.044Z,22.40
2023-03-28T09:15:18.970Z,22.50
2023-03-28T09:17:30.239Z,22.40
2023-03-28T09:19:44.745Z,22.50
2023-03-28T09:22:45.490Z,22.60
2023-03-28T09:24:51.298Z,22.60
2023-03-28T09:27:05.898Z,22.50
2023-03-28T09:29:18.676Z,22.40
2023-03-28T09:31:26.997Z,22.40
2023-03-28T09:33:34.951Z,22.30
2023-03-28T09:35:37.848Z,22.40
2023-03-28T09:37:41.352Z,22.40
2023-03-28T09:39:48.881Z,22.50
2023-03-28T09:42:00.397Z,22.60
2023-03-28T09:44:53.604Z,22.60
2023-03-28T09:49:27.114Z,22.60
2023-03-28T09:51:42.912Z,22.70
2023-03-28T09:53:44.704Z,22.80
2023-03-28T09:55:58.013Z,22.80
2023-03-28T09:58:07.042Z,22.80
2023-03-28T10:00:28.819Z,22.80
2023-03-28T10:02:53.973Z,22.90
2023-03-28T10:04:56.025Z,22.80
2023-03-28T10:07:28.970Z,22.90
2023-03-28T10:09:56.674Z,22.90
2023-03-28T10:12:01.044Z,22.80
2023-03-28T10:14:27.874Z,22.80
2023-03-28T10:16:30.702Z,22.90
2023-03-28T10:18:54.750Z,22.80
2023-03-28T10:21:25.133Z,22.60
2023-03-28T10:23:39.077Z,22.40
2023-03-28T10:25:42.354Z,22.20
2023-03-28T10:27:44.958Z,22.20
2023-03-28T10:29:47.024Z,22.20
2023-03-28T10:31:51.373Z,22.10
2023-03-28T10:33:59.821Z,22.10
2023-03-28T10:36:30.444Z,22.00
2023-03-28T10:38:44.291Z,22.00
2023-03-28T10:41:24.606Z,21.90
2023-03-28T10:43:48.281Z,22.00
2023-03-28T10:45:59.329Z,22.00
2023-03-28T10:48:10.875Z,22.00
2023-03-28T10:50:30.832Z,21.90
2023-03-28T10:52:44.770Z,21.90
2023-03-28T10:55:02.297Z,21.90
2023-03-28T10:57:21.227Z,22.00
2023-03-28T10:59:33.790Z,22.10
2023-03-28T11:01:41.586Z,22.20
2023-03-28T11:03:51.784Z,22.30
2023-03-28T11:06:08.854Z,22.20
2023-03-28T11:08:41.336Z,22.10
2023-03-28T11:10:49.968Z,22.00
2023-03-28T11:13:18.499Z,22.00
2023-03-28T11:15:33.301Z,22.10
2023-03-28T11:17:44.962Z,22.20
2023-03-28T11:19:49.061Z,22.30
2023-03-28T11:21:50.815Z,22.40
2023-03-28T11:23:59.934Z,22.40
2023-03-28T11:26:27.771Z,22.50
2023-03-28T11:29:25.909Z,22.50
2023-03-28T11:31:38.278Z,22.50
2023-03-28T11:33:58.657Z,22.50
2023-03-28T11:36:15.052Z,22.50
2023-03-28T11:38:21.357Z,22.50
2023-03-28T11:40:27.969Z,22.60
2023-03-28T11:42:45.387Z,22.60
2023-03-28T11:45:04.891Z,22.70
2023-03-28T11:47:21.560Z,22.70
2023-03-28T11:49:38.199Z,22.70
2023-03-28T11:51:54.633Z,22.60
2023-03-28T11:54:00.658Z,22.70
2023-03-28T11:56:23.795Z,22.70
2023-03-28T11:59:04.914Z,22.70
2023-03-28T12:01:07.563Z,22.80
2023-03-28T12:03:28.227Z,22.70
2023-03-28T12:05:31.005Z,22.70
2023-03-28T12:07:42.289Z,22.70
2023-03-28T12:12:29.012Z,22.80
2023-03-28T12:16:43.946Z,22.50
2023-03-28T12:18:49.865Z,22.40
2023-03-28T12:21:29.975Z,22.40
2023-03-28T12:23:37.425Z,22.40
2023-03-28T12:30:17.063Z,22.50
2023-03-28T12:32:25.894Z,22.40
2023-03-28T12:34:44.520Z,22.30
2023-03-28T12:37:22.331Z,22.20
2023-03-28T12:39:25.120Z,22.00
2023-03-28T12:41:34.684Z,21.80
2023-03-28T12:43:36.561Z,21.70
2023-03-28T12:45:42.288Z,21.70
2023-03-28T12:47:50.110Z,21.70
2023-03-28T12:49:55.766Z,21.60
2023-03-28T12:51:59.821Z,21.40
2023-03-28T12:54:17.103Z,21.40
2023-03-28T12:56:21.575Z,21.30
2023-03-28T12:58:25.003Z,21.30
2023-03-28T13:00:35.345Z,21.30
2023-03-28T13:03:05.014Z,21.40
2023-03-28T13:05:45.159Z,21.40
2023-03-28T13:07:55.768Z,21.50
2023-03-28T13:09:57.543Z,21.50
2023-03-28T13:12:22.713Z,21.60
2023-03-28T13:14:37.689Z,21.70
2023-03-28T13:16:39.510Z,21.80
2023-03-28T13:18:48.074Z,22.00
2023-03-28T13:20:51.052Z,22.10
2023-03-28T13:22:54.114Z,22.10
2023-03-28T13:25:14.316Z,22.20
2023-03-28T13:27:36.350Z,22.20
2023-03-28T13:29:44.396Z,22.30
2023-03-28T13:31:46.333Z,22.40
2023-03-28T13:33:51.726Z,22.40
2023-03-28T13:35:59.552Z,22.50
2023-03-28T13:38:15.148Z,22.40
2023-03-28T13:40:35.705Z,22.40
2023-03-28T13:42:37.522Z,22.50
2023-03-28T13:44:41.797Z,22.50
2023-03-28T13:46:50.684Z,22.50
2023-03-28T13:49:01.365Z,22.30
2023-03-28T13:51:07.206Z,22.30
2023-03-28T13:53:09.020Z,22.30
2023-03-28T13:55:17.522Z,22.40
2023-03-28T13:57:20.228Z,22.40
2023-03-28T13:59:23.814Z,22.50
2023-03-28T14:01:26.597Z,22.50
2023-03-28T14:03:28.498Z,22.60
2023-03-28T14:05:31.754Z,22.60
2023-03-28T14:07:33.608Z,22.60
2023-03-28T14:09:35.485Z,22.50
2023-03-28T14:11:37.634Z,22.40
2023-03-28T14:13:39.703Z,22.20
2023-03-28T14:15:42.432Z,22.20
2023-03-28T14:17:44.470Z,22.20
2023-03-28T14:19:47.985Z,22.20
2023-03-28T14:21:49.880Z,22.20
2023-03-28T14:23:56.582Z,22.20
2023-03-28T14:26:01.107Z,22.20
2023-03-28T14:28:07.004Z,22.10
2023-03-28T14:30:35.057Z,22.10
2023-03-28T14:32:50.615Z,22.10
2023-03-28T14:35:17.369Z,22.10
2023-03-28T14:37:19.744Z,22.10
2023-03-28T14:39:22.054Z,22.10
2023-03-28T14:41:23.940Z,22.10
2023-03-28T14:43:28.317Z,22.00
2023-03-28T14:45:31.137Z,22.00
2023-03-28T14:47:33.267Z,21.90
2023-03-28T14:49:36.814Z,21.90
2023-03-28T14:51:39.773Z,21.90
2023-03-28T14:53:42.626Z,21.90
2023-03-28T14:55:44.474Z,22.00
2023-03-28T14:57:46.990Z,22.00
2023-03-28T14:59:50.383Z,22.00
2023-03-28T15:01:52.350Z,22.00
2023-03-28T15:03:58.569Z,22.00
2023-03-28T15:06:00.782Z,22.00
2023-03-28T15:08:03.448Z,22.00
2023-03-28T15:10:05.355Z,22.00
2023-03-28T15:12:07.770Z,21.90
2023-03-28T15:14:17.312Z,21.90
2023-03-28T15:16:20.545Z,22.00
2023-03-28T15:18:26.069Z,22.10
2023-03-28T15:20:29.951Z,22.10
2023-03-28T15:22:31.915Z,22.00
2023-03-28T15:24:35.535Z,22.00
2023-03-28T15:26:47.998Z,22.00
2023-03-28T15:28:49.807Z,22.00
2023-03-28T15:30:51.762Z,22.10
2023-03-28T15:33:00.179Z,22.10
2023-03-28T15:35:03.421Z,22.20
2023-03-28T15:39:26.953Z,22.30
2023-03-28T15:41:42.375Z,22.30
2023-03-28T15:43:56.221Z,22.30
2023-03-28T15:45:59.200Z,22.40
2023-03-28T15:48:05.764Z,22.40
2023-03-28T15:50:13.005Z,22.40
2023-03-28T15:52:16.134Z,22.40
2023-03-28T15:54:30.344Z,22.40
2023-03-28T15:56:33.896Z,22.40
2023-03-28T15:58:40.359Z,22.30
2023-03-28T16:00:46.985Z,22.30
2023-03-28T16:02:48.894Z,22.40
2023-03-28T16:05:00.957Z,22.40
2023-03-28T16:07:12.708Z,22.40
2023-03-28T16:09:17.077Z,22.30
2023-03-28T16:11:21.286Z,22.20
2023-03-28T16:13:41.889Z,22.10
2023-03-28T16:16:28.000Z,21.90
2023-03-28T16:18:50.113Z,21.80
2023-03-28T16:20:51.956Z,22.00
2023-03-28T16:22:53.749Z,22.00
2023-03-28T16:24:55.555Z,22.10
2023-03-28T16:26:57.444Z,22.10
2023-03-28T16:28:59.304Z,22.20
2023-03-28T16:31:01.116Z,22.10
2023-03-28T16:33:03.150Z,22.10
2023-03-28T16:35:05.337Z,22.10
2023-03-28T16:37:07.722Z,22.10
2023-03-28T16:39:10.403Z,22.20
2023-03-28T16:41:12.212Z,22.20
2023-03-28T16:43:14.414Z,22.20
2023-03-28T16:45:16.607Z,22.10
2023-03-28T16:47:18.406Z,22.20
2023-03-28T16:49:20.234Z,22.20
2023-03-28T16:51:22.069Z,22.20
2023-03-28T16:53:24.180Z,22.00
2023-03-28T16:55:26.022Z,22.00
2023-03-28T16:57:27.949Z,22.00
2023-03-28T16:59:29.789Z,22.00
2023-03-28T17:01:31.721Z,22.00
2023-03-28T17:03:33.613Z,22.00
2023-03-28T17:05:38.818Z,22.00
2023-03-28T17:07:40.642Z,22.10
2023-03-28T17:09:42.542Z,22.10
2023-03-28T17:11:44.343Z,22.10
2023-03-28T17:13:46.101Z,22.10
2023-03-28T17:15:47.959Z,22.10
2023-03-28T17:17:49.828Z,22.10
2023-03-28T17:19:51.657Z,22.00
2023-03-28T17:21:53.682Z,22.00
2023-03-28T17:23:55.444Z,22.00
2023-03-28T17:25:57.298Z,22.00
2023-03-28T17:27:59.093Z,21.90
2023-03-28T17:30:00.926Z,21.90
2023-03-28T17:32:02.855Z,22.00
2023-03-28T17:34:04.988Z,21.90
2023-03-28T17:36:20.517Z,21.90
2023-03-28T17:38:23.156Z,21.80
2023-03-28T17:40:25.006Z,21.80
2023-03-28T17:42:26.826Z,21.80
2023-03-28T17:44:28.650Z,21.80
2023-03-28T17:46:30.473Z,21.80
2023-03-28T17:48:32.324Z,21.80
2023-03-28T17:50:34.203Z,21.70
2023-03-28T17:52:35.971Z,21.70
2023-03-28T17:54:37.789Z,21.70
2023-03-28T17:56:39.892Z,21.70
2023-03-28T17:58:42.041Z,21.70
2023-03-28T18:00:43.961Z,21.70
2023-03-28T18:02:45.905Z,21.60
2023-03-28T18:05:07.158Z,21.60
2023-03-28T18:07:16.430Z,21.60
2023-03-28T18:09:19.658Z,21.60
2023-03-28T18:11:21.420Z,21.60
2023-03-28T18:13:23.246Z,21.60
2023-03-28T18:15:25.057Z,21.50
2023-03-28T18:17:26.938Z,21.50
2023-03-28T18:19:28.713Z,21.50
2023-03-28T18:21:30.774Z,21.60
2023-03-28T18:23:32.606Z,21.50
2023-03-28T18:25:38.089Z,21.50
2023-03-28T18:27:39.921Z,21.50
2023-03-28T18:29:41.718Z,21.50
2023-03-28T18:31:43.600Z,21.50
2023-03-28T18:33:45.561Z,21.40
2023-03-28T18:35:47.719Z,21.40
2023-03-28T18:37:49.552Z,21.40
2023-03-28T18:39:51.386Z,21.40
2023-03-28T18:41:53.229Z,21.40
2023-03-28T18:43:55.059Z,21.30
2023-03-28T18:45:56.899Z,21.40
2023-03-28T18:47:58.735Z,21.40
2023-03-28T18:50:00.620Z,21.40
2023-03-28T18:52:02.377Z,21.30
2023-03-28T18:54:04.183Z,21.30
2023-03-28T18:56:06.611Z,21.30
2023-03-28T18:58:08.475Z,21.30
2023-03-28T19:00:10.486Z,21.30
2023-03-28T19:02:12.497Z,21.30
2023-03-28T19:04:14.423Z,21.20
2023-03-28T19:06:16.341Z,21.20
2023-03-28T19:08:18.216Z,21.20
2023-03-28T19:10:20.059Z,21.20
2023-03-28T19:12:21.911Z,21.20
2023-03-28T19:14:23.952Z,21.20
2023-03-28T19:16:26.051Z,21.20
2023-03-28T19:18:28.418Z,21.20
2023-03-28T19:20:30.261Z,21.20
2023-03-28T19:22:32.073Z,21.20
2023-03-28T19:24:33.858Z,21.20
2023-03-28T19:26:35.724Z,21.20
2023-03-28T19:28:37.522Z,21.20
2023-03-28T19:30:39.376Z,21.20
2023-03-28T19:32:41.202Z,21.20
2023-03-28T19:34:43.046Z,21.20
2023-03-28T19:36:44.821Z,21.10
2023-03-28T19:38:46.625Z,21.10
2023-03-28T19:40:48.769Z,21.00
2023-03-28T19:42:50.660Z,21.10
2023-03-28T19:44:52.504Z,21.10
2023-03-28T19:46:54.349Z,21.10
2023-03-28T19:49:02.664Z,21.10
2023-03-28T19:51:04.533Z,21.10
2023-03-28T19:53:06.424Z,21.10
2023-03-28T19:55:08.500Z,21.10
2023-03-28T19:57:10.395Z,21.10
2023-03-28T19:59:12.433Z,21.10
2023-03-28T20:01:14.668Z,21.00
2023-03-28T20:03:17.057Z,21.10
2023-03-28T20:05:18.829Z,21.10
2023-03-28T20:07:20.641Z,21.10
2023-03-28T20:09:22.470Z,21.00
2023-03-28T20:11:24.275Z,21.00
2023-03-28T20:13:26.243Z,21.00
2023-03-28T20:15:28.046Z,21.00
2023-03-28T20:17:29.854Z,21.10
2023-03-28T20:19:31.687Z,21.00
2023-03-28T20:21:33.512Z,21.10
2023-03-28T20:23:35.391Z,21.00
2023-03-28T20:25:37.234Z,21.00
2023-03-28T20:27:38.993Z,21.00
2023-03-28T20:29:40.831Z,21.00
2023-03-28T20:31:42.673Z,21.00
2023-03-28T20:33:44.797Z,21.00
2023-03-28T20:35:57.149Z,21.00
2023-03-28T20:37:59.204Z,21.00
2023-03-28T20:40:01.023Z,21.00
2023-03-28T20:42:03.418Z,21.00
2023-03-28T20:44:05.415Z,21.00
2023-03-28T20:46:07.201Z,21.00
2023-03-28T20:48:09.038Z,21.00
2023-03-28T20:50:11.139Z,21.00
2023-03-28T20:52:12.957Z,21.00
2023-03-28T20:54:14.755Z,21.00
2023-03-28T20:56:17.711Z,21.00
2023-03-28T20:58:19.543Z,21.00
2023-03-28T21:00:21.813Z,21.00
2023-03-28T21:02:23.637Z,21.00
2023-03-28T21:04:25.533Z,21.00
2023-03-28T21:06:31.667Z,21.00
2023-03-28T21:08:33.701Z,21.00
2023-03-28T21:10:35.539Z,21.00
2023-03-28T21:12:37.359Z,21.00
2023-03-28T21:14:39.105Z,21.00
2023-03-28T21:16:41.534Z,21.00
2023-03-28T21:18:43.961Z,20.90
2023-03-28T21:20:46.079Z,21.00
2023-03-28T21:22:47.934Z,20.90
2023-03-28T21:24:49.713Z,21.00
2023-03-28T21:26:51.544Z,20.90
2023-03-28T21:28:53.344Z,20.90
2023-03-28T21:30:59.300Z,21.00
2023-03-28T21:33:03.087Z,21.00
2023-03-28T21:35:05.921Z,21.00
2023-03-28T21:37:07.760Z,20.80
2023-03-28T21:39:09.620Z,20.70
2023-03-28T21:41:11.759Z,20.70
2023-03-28T21:43:14.244Z,20.60
2023-03-28T21:45:16.113Z,20.60
2023-03-28T21:47:17.871Z,20.50
2023-03-28T21:49:19.681Z,20.50
2023-03-28T21:51:21.523Z,20.50
2023-03-28T21:53:23.315Z,20.50
2023-03-28T21:55:25.273Z,20.40
2023-03-28T21:57:27.098Z,20.40
2023-03-28T21:59:28.843Z,20.40
2023-03-28T22:01:31.043Z,20.40
2023-03-28T22:03:35.196Z,20.40
2023-03-28T22:05:42.950Z,20.30
2023-03-28T22:07:45.132Z,20.30
2023-03-28T22:09:46.972Z,20.30
2023-03-28T22:11:48.743Z,20.30
2023-03-28T22:13:50.679Z,20.30
2023-03-28T22:15:52.933Z,20.30
2023-03-28T22:17:54.958Z,20.30
2023-03-28T22:19:56.801Z,20.20
2023-03-28T22:21:58.688Z,20.20
2023-03-28T22:24:00.718Z,20.20
2023-03-28T22:26:02.540Z,20.20
2023-03-28T22:28:05.339Z,20.20
2023-03-28T22:30:08.463Z,20.20
2023-03-28T22:32:12.215Z,20.20
2023-03-28T22:34:14.021Z,20.20
2023-03-28T22:36:15.769Z,20.20
2023-03-28T22:38:18.200Z,20.20
2023-03-28T22:40:20.063Z,20.10
2023-03-28T22:42:22.381Z,20.10
2023-03-28T22:44:24.219Z,20.10
2023-03-28T22:46:26.044Z,20.10
2023-03-28T22:48:28.032Z,20.10
2023-03-28T22:50:29.808Z,20.10
2023-03-28T22:52:31.575Z,20.10
2023-03-28T22:54:34.017Z,20.10
2023-03-28T22:56:35.846Z,20.10
2023-03-28T22:58:37.627Z,20.00
2023-03-28T23:00:39.682Z,20.10
2023-03-28T23:02:41.557Z,20.10
2023-03-28T23:04:43.441Z,20.10
2023-03-28T23:06:45.239Z,20.10
2023-03-28T23:08:47.021Z,20.10
2023-03-28T23:10:48.878Z,20.00
2023-03-28T23:12:50.654Z,20.00
2023-03-28T23:14:52.372Z,20.00
2023-03-28T23:16:54.174Z,20.00
2023-03-28T23:18:56.038Z,20.00
2023-03-28T23:20:57.825Z,20.00
2023-03-28T23:22:59.581Z,20.00
2023-03-28T23:25:01.416Z,20.00
2023-03-28T23:27:03.211Z,20.00
2023-03-28T23:29:05.198Z,19.90
2023-03-28T23:31:07.166Z,19.90
2023-03-28T23:33:08.982Z,19.90
2023-03-28T23:35:11.320Z,19.90
2023-03-28T23:37:13.050Z,19.90
2023-03-28T23:39:14.836Z,19.90
2023-03-28T23:41:16.860Z,19.90
2023-03-28T23:43:18.640Z,19.90
2023-03-28T23:45:20.456Z,19.90
2023-03-28T23:47:22.257Z,19.90
2023-03-28T23:49:24.174Z,19.90
2023-03-28T23:51:26.058Z,19.90
2023-03-28T23:53:28.303Z,19.80
2023-03-28T23:55:30.827Z,19.80
2023-03-28T23:57:32.578Z,19.90
2023-03-28T23:59:34.772Z,19.90
